Time;durP1;ratioP1;P1;durP2;ratioP2;P2;SDS_P1;SDS_P2;PMS_P1;PMS_P2;Temp;Humidity;BMP_temperature;BMP_pressure;BME280_temperature;BME280_humidity;BME280_pressure;Samples;Min_cycle;Max_cycle;Signal;HPM_P1;HPM_P2
2021/04/28 00:01:39;;;;;;;5.60;3.77;;;8.50;45.90;;;;;;5043829;28;20210;-74
2021/04/28 00:04:06;;;;;;;4.80;3.67;;;8.50;45.90;;;;;;5037815;28;20257;-74
2021/04/28 00:06:32;;;;;;;3.07;2.77;;;8.40;45.30;;;;;;5037714;28;20244;-74
2021/04/28 00:08:59;;;;;;;4.07;3.43;;;8.40;46.50;;;;;;5037131;28;20191;-73
2021/04/28 00:11:26;;;;;;;5.10;3.30;;;8.30;45.80;;;;;;5031825;28;20194;-73
2021/04/28 00:13:51;;;;;;;5.20;3.80;;;8.30;46.20;;;;;;5037483;28;20648;-73
2021/04/28 00:16:20;;;;;;;3.67;3.20;;;8.20;46.40;;;;;;5030824;28;20191;-77
2021/04/28 00:18:47;;;;;;;6.83;3.80;;;8.20;46.70;;;;;;5042133;28;20198;-74
2021/04/28 00:21:14;;;;;;;3.83;2.93;;;8.10;46.80;;;;;;5043252;28;20183;-75
2021/04/28 00:23:40;;;;;;;5.10;3.60;;;8.10;47.20;;;;;;5026333;28;20277;-75
2021/04/28 00:26:06;;;;;;;5.27;3.77;;;8.00;47.40;;;;;;5028992;28;20232;-74
2021/04/28 00:28:32;;;;;;;7.27;4.10;;;7.90;47.40;;;;;;5036927;28;20190;-74
2021/04/28 00:30:57;;;;;;;4.97;3.23;;;8.00;47.80;;;;;;5042001;28;20903;-74
2021/04/28 00:33:23;;;;;;;4.43;3.20;;;7.90;47.60;;;;;;5040327;28;20603;-74
2021/04/28 00:35:48;;;;;;;3.97;3.07;;;7.90;47.00;;;;;;5021518;28;20283;-74
2021/04/28 00:38:14;;;;;;;5.43;3.60;;;7.90;47.50;;;;;;5028836;28;20191;-73
2021/04/28 00:40:40;;;;;;;5.10;3.70;;;7.90;47.60;;;;;;5028940;28;20182;-73
2021/04/28 00:43:07;;;;;;;4.17;3.33;;;7.90;47.60;;;;;;5039750;28;20221;-73
2021/04/28 00:45:34;;;;;;;7.67;3.77;;;7.90;47.70;;;;;;5045156;28;20213;-73
2021/04/28 00:48:01;;;;;;;4.93;4.13;;;7.80;47.60;;;;;;5038739;28;20236;-74
2021/04/28 00:50:33;;;;;;;3.30;3.00;;;7.80;47.30;;;;;;5029083;28;20198;-74
2021/04/28 00:53:01;;;;;;;3.53;3.23;;;7.80;48.50;;;;;;5030673;28;20195;-73
2021/04/28 00:55:27;;;;;;;4.60;3.73;;;7.80;47.90;;;;;;5027972;28;20221;-74
2021/04/28 00:57:53;;;;;;;4.80;3.60;;;7.70;48.30;;;;;;5038727;28;20650;-73
2021/04/28 01:00:20;;;;;;;4.70;3.60;;;7.60;48.50;;;;;;5038061;28;20273;-73
2021/04/28 01:02:46;;;;;;;4.87;3.73;;;7.60;49.10;;;;;;5034070;28;20222;-73
2021/04/28 01:05:13;;;;;;;4.67;3.43;;;7.50;48.60;;;;;;5024898;28;20227;-75
2021/04/28 01:07:40;;;;;;;4.83;4.17;;;7.50;48.50;;;;;;5039644;28;20191;-73
2021/04/28 01:10:09;;;;;;;5.47;3.87;;;7.50;49.30;;;;;;5039232;28;20245;-74
2021/04/28 01:12:37;;;;;;;5.37;3.77;;;7.50;49.40;;;;;;5026635;28;20187;-73
2021/04/28 01:15:05;;;;;;;5.53;3.70;;;7.50;49.40;;;;;;5023433;28;20222;-73
2021/04/28 01:17:31;;;;;;;5.47;4.30;;;7.40;49.40;;;;;;5037779;28;20213;-74
2021/04/28 01:19:56;;;;;;;5.20;4.00;;;7.40;49.60;;;;;;5027135;28;20563;-74
2021/04/28 01:22:23;;;;;;;5.00;3.80;;;7.40;49.60;;;;;;5034887;28;20210;-75
2021/04/28 01:24:50;;;;;;;4.30;3.60;;;7.40;50.50;;;;;;5042349;28;22664;-74
2021/04/28 01:27:24;;;;;;;5.13;4.03;;;7.30;49.80;;;;;;5027831;28;20183;-74
2021/04/28 01:29:50;;;;;;;4.13;3.73;;;7.30;50.00;;;;;;5045524;28;20194;-74
2021/04/28 01:32:21;;;;;;;5.57;3.90;;;7.30;50.00;;;;;;5032668;28;20202;-74
2021/04/28 01:34:49;;;;;;;4.47;3.97;;;7.30;50.00;;;;;;5042943;28;20257;-74
2021/04/28 01:37:16;;;;;;;6.17;3.80;;;7.30;50.10;;;;;;5042898;28;20193;-74
2021/04/28 01:39:43;;;;;;;5.03;3.63;;;7.20;50.20;;;;;;5043222;28;20239;-74
2021/04/28 01:42:10;;;;;;;7.00;4.20;;;7.20;50.50;;;;;;5045237;28;20262;-75
2021/04/28 01:44:36;;;;;;;5.50;3.90;;;7.10;50.60;;;;;;5043487;28;20589;-74
2021/04/28 01:47:03;;;;;;;5.27;3.70;;;7.10;50.60;;;;;;5050339;28;20251;-73
2021/04/28 01:49:31;;;;;;;4.53;4.03;;;7.10;50.90;;;;;;5047329;28;20191;-75
2021/04/28 01:51:57;;;;;;;7.40;4.70;;;7.00;51.00;;;;;;5043395;28;20189;-73
2021/04/28 01:54:23;;;;;;;6.33;4.33;;;7.20;51.50;;;;;;5046729;28;20285;-74
2021/04/28 01:56:51;;;;;;;5.30;4.47;;;6.90;51.60;;;;;;5049398;28;20186;-74
2021/04/28 01:59:19;;;;;;;7.33;4.13;;;6.90;51.70;;;;;;5046521;28;20183;-74
2021/04/28 02:01:57;;;;;;;5.70;3.87;;;6.90;52.10;;;;;;5044077;28;20578;-74
2021/04/28 02:04:23;;;;;;;6.73;4.50;;;6.80;51.60;;;;;;5041971;28;20210;-74
2021/04/28 02:06:50;;;;;;;5.83;4.30;;;6.80;52.20;;;;;;5044405;28;20195;-74
2021/04/28 02:09:16;;;;;;;5.47;3.50;;;6.70;52.40;;;;;;5046957;28;20198;-74
2021/04/28 02:11:42;;;;;;;7.27;3.67;;;6.70;52.50;;;;;;5039924;28;20186;-74
2021/04/28 02:14:15;;;;;;;3.87;3.27;;;6.80;52.90;;;;;;5028536;28;20244;-74
2021/04/28 02:16:42;;;;;;;5.10;4.07;;;6.60;52.70;;;;;;5045638;28;20210;-74
2021/04/28 02:19:09;;;;;;;8.70;4.17;;;6.60;53.00;;;;;;5031832;28;20196;-76
2021/04/28 02:21:45;;;;;;;4.33;3.93;;;6.60;53.00;;;;;;5045378;28;20593;-74
2021/04/28 02:24:14;;;;;;;5.13;4.03;;;6.60;53.00;;;;;;5032648;28;20629;-73
2021/04/28 02:26:42;;;;;;;6.77;3.80;;;6.60;53.00;;;;;;5045050;28;20198;-73
2021/04/28 02:29:08;;;;;;;4.70;3.87;;;6.60;53.00;;;;;;5025938;28;20187;-74
2021/04/28 02:31:34;;;;;;;6.23;4.23;;;6.50;52.90;;;;;;5021256;28;20203;-75
2021/04/28 02:34:02;;;;;;;5.43;3.50;;;6.50;52.90;;;;;;5024249;28;20197;-74
2021/04/28 02:36:30;;;;;;;5.67;4.20;;;6.50;52.90;;;;;;5040449;28;21048;-74
2021/04/28 02:39:04;;;;;;;4.23;3.60;;;6.40;52.90;;;;;;5043672;28;20188;-75
2021/04/28 02:41:30;;;;;;;4.77;3.60;;;6.40;52.70;;;;;;5045425;28;20265;-74
2021/04/28 02:43:57;;;;;;;5.53;3.73;;;6.40;53.40;;;;;;5044079;28;20195;-73
2021/04/28 02:46:25;;;;;;;4.97;4.10;;;6.40;53.30;;;;;;5025579;28;20186;-74
2021/04/28 02:48:52;;;;;;;7.17;3.97;;;6.40;53.20;;;;;;5026524;28;20187;-73
2021/04/28 02:51:17;;;;;;;5.63;3.57;;;6.40;53.30;;;;;;5041354;28;20194;-74
2021/04/28 02:53:47;;;;;;;5.30;4.03;;;6.40;53.50;;;;;;5019709;28;20548;-74
2021/04/28 02:56:13;;;;;;;8.90;4.00;;;;;;;;;;5022558;28;20212;-73
2021/04/28 02:58:40;;;;;;;4.70;4.20;;;6.30;53.20;;;;;;5023653;28;20198;-73
2021/04/28 03:01:08;;;;;;;7.97;4.60;;;6.20;54.70;;;;;;5041396;28;20198;-73
2021/04/28 03:03:34;;;;;;;8.40;4.80;;;6.20;54.30;;;;;;5024001;28;20282;-73
2021/04/28 03:06:00;;;;;;;5.17;4.37;;;6.20;54.00;;;;;;5042338;28;20324;-73
2021/04/28 03:08:26;;;;;;;5.20;4.30;;;6.20;54.50;;;;;;5040427;28;20718;-73
2021/04/28 03:10:52;;;;;;;5.30;3.93;;;6.20;54.40;;;;;;5030944;28;20198;-73
2021/04/28 03:13:18;;;;;;;4.60;3.60;;;6.90;55.20;;;;;;5036636;28;20229;-73
2021/04/28 03:15:47;;;;;;;6.03;4.50;;;6.10;54.70;;;;;;5040558;28;20206;-72
2021/04/28 03:18:13;;;;;;;5.03;4.40;;;6.00;54.80;;;;;;5040560;28;20205;-74
2021/04/28 03:20:42;;;;;;;5.27;4.10;;;6.00;55.10;;;;;;5043355;28;20191;-74
2021/04/28 03:23:12;;;;;;;6.37;4.70;;;6.00;55.10;;;;;;5018132;28;20245;-73
2021/04/28 03:25:38;;;;;;;4.77;4.17;;;6.00;55.40;;;;;;5042398;28;20187;-74
2021/04/28 03:28:04;;;;;;;5.10;4.37;;;5.90;55.50;;;;;;5042137;28;20985;-75
2021/04/28 03:30:30;;;;;;;3.67;3.33;;;5.90;55.60;;;;;;5042945;28;20240;-73
2021/04/28 03:32:55;;;;;;;5.73;4.83;;;5.90;55.80;;;;;;5023437;28;20285;-73
2021/04/28 03:35:21;;;;;;;4.90;4.30;;;5.80;55.80;;;;;;5043087;28;20264;-75
2021/04/28 03:37:47;;;;;;;4.77;4.20;;;5.80;56.10;;;;;;5035288;28;20191;-74
2021/04/28 03:40:13;;;;;;;4.57;4.13;;;5.80;56.20;;;;;;5031138;28;20189;-76
2021/04/28 03:42:38;;;;;;;4.80;3.97;;;5.70;56.20;;;;;;5043196;28;20214;-73
2021/04/28 03:45:06;;;;;;;5.90;4.13;;;5.70;56.20;;;;;;5041380;28;20198;-73
2021/04/28 03:47:31;;;;;;;4.80;3.80;;;5.70;56.10;;;;;;5032771;28;20252;-73
2021/04/28 03:49:57;;;;;;;4.90;3.90;;;5.70;55.90;;;;;;5037279;28;20202;-74
2021/04/28 03:52:23;;;;;;;5.77;4.30;;;5.80;56.10;;;;;;5022334;28;20205;-73
2021/04/28 03:54:49;;;;;;;4.50;4.10;;;5.80;55.90;;;;;;5027639;28;20186;-74
2021/04/28 03:57:15;;;;;;;4.73;4.33;;;5.80;56.10;;;;;;5041914;28;20273;-73
2021/04/28 03:59:41;;;;;;;5.40;4.37;;;5.80;56.00;;;;;;5041048;28;20275;-73
2021/04/28 04:02:06;;;;;;;5.60;4.43;;;5.80;55.90;;;;;;5048256;28;20669;-73
2021/04/28 04:04:32;;;;;;;4.17;3.77;;;5.70;55.50;;;;;;5029364;28;20227;-73
2021/04/28 04:06:58;;;;;;;5.00;4.50;;;5.70;56.00;;;;;;5037810;28;20183;-74
2021/04/28 04:09:23;;;;;;;5.20;3.70;;;5.70;56.10;;;;;;5043506;28;20191;-74
2021/04/28 04:11:49;;;;;;;6.20;4.73;;;5.70;56.30;;;;;;5029347;28;20689;-74
2021/04/28 04:14:16;;;;;;;5.43;3.70;;;5.70;56.30;;;;;;5046544;28;20264;-74
2021/04/28 04:16:41;;;;;;;8.10;4.40;;;5.70;56.50;;;;;;5048638;28;20240;-74
2021/04/28 04:19:07;;;;;;;7.23;5.00;;;5.70;56.40;;;;;;5043383;28;20183;-73
2021/04/28 04:21:32;;;;;;;4.60;3.77;;;5.70;56.70;;;;;;5040450;28;20215;-74
2021/04/28 04:23:58;;;;;;;7.30;4.53;;;5.60;56.60;;;;;;5038937;28;20198;-74
2021/04/28 04:26:24;;;;;;;6.80;4.63;;;5.70;56.80;;;;;;5020174;28;20218;-73
2021/04/28 04:28:49;;;;;;;5.27;3.70;;;5.80;56.80;;;;;;5027837;28;20222;-66
2021/04/28 04:31:15;;;;;;;9.80;4.80;;;5.60;56.60;;;;;;5034470;28;20203;-67
2021/04/28 04:33:41;;;;;;;4.27;3.77;;;5.70;56.50;;;;;;5035136;28;20638;-67
2021/04/28 04:36:06;;;;;;;5.50;4.37;;;5.70;56.20;;;;;;5036224;28;20197;-67
2021/04/28 04:38:32;;;;;;;7.00;4.83;;;5.70;56.20;;;;;;5034187;28;20191;-67
2021/04/28 04:40:58;;;;;;;5.57;4.83;;;5.80;55.90;;;;;;5036904;28;20217;-67
2021/04/28 04:43:23;;;;;;;9.03;4.90;;;5.80;55.90;;;;;;5019644;28;20210;-67
2021/04/28 04:45:49;;;;;;;4.93;3.80;;;5.80;55.90;;;;;;5036360;28;20589;-67
2021/04/28 04:48:15;;;;;;;4.23;3.63;;;5.80;55.60;;;;;;5039351;28;20222;-67
2021/04/28 04:50:41;;;;;;;4.87;4.37;;;5.90;55.40;;;;;;5012067;28;20256;-67
2021/04/28 04:53:08;;;;;;;5.17;4.13;;;6.00;55.50;;;;;;5036892;28;20725;-67
2021/04/28 04:55:34;;;;;;;6.57;3.73;;;6.00;55.20;;;;;;5024110;28;20198;-67
2021/04/28 04:57:59;;;;;;;5.43;3.73;;;6.00;55.00;;;;;;5025636;28;20385;-67
2021/04/28 05:00:26;;;;;;;11.47;3.90;;;6.10;54.80;;;;;;5037117;28;20210;-67
2021/04/28 05:02:51;;;;;;;5.97;4.27;;;6.20;54.10;;;;;;5041612;28;20210;-67
2021/04/28 05:05:17;;;;;;;4.87;4.03;;;6.30;53.50;;;;;;5042509;28;20801;-68
2021/04/28 05:07:43;;;;;;;5.73;4.60;;;6.30;53.70;;;;;;5039665;28;20187;-68
2021/04/28 05:10:11;;;;;;;7.90;4.53;;;6.40;53.70;;;;;;5038652;28;20187;-67
2021/04/28 05:12:37;;;;;;;4.50;3.67;;;6.50;53.30;;;;;;5042832;28;20208;-67
2021/04/28 05:15:03;;;;;;;5.73;4.30;;;6.60;53.00;;;;;;5021021;28;20214;-67
2021/04/28 05:17:29;;;;;;;3.43;3.07;;;6.60;53.00;;;;;;5021564;28;20226;-64
2021/04/28 05:19:55;;;;;;;5.87;4.40;;;6.70;52.60;;;;;;5039308;28;20559;-63
2021/04/28 05:22:23;;;;;;;4.40;3.97;;;6.80;52.50;;;;;;5039048;28;20308;-63
2021/04/28 05:24:49;;;;;;;5.40;3.93;;;7.00;52.20;;;;;;5040474;28;20280;-64
2021/04/28 05:27:15;;;;;;;4.60;4.07;;;7.00;51.50;;;;;;5029090;28;20620;-63
2021/04/28 05:29:41;;;;;;;4.27;3.70;;;7.10;51.10;;;;;;5039643;28;20225;-68
2021/04/28 05:32:06;;;;;;;4.97;3.87;;;7.20;50.40;;;;;;5038866;28;20289;-67
2021/04/28 05:34:32;;;;;;;4.20;3.10;;;7.30;50.30;;;;;;5040596;28;20195;-67
2021/04/28 05:36:58;;;;;;;6.90;3.97;;;;;;;;;;5040282;28;20237;-68
2021/04/28 05:39:24;;;;;;;5.57;3.63;;;7.40;49.20;;;;;;5022989;28;20285;-68
2021/04/28 05:41:49;;;;;;;5.33;4.20;;;7.60;48.90;;;;;;5041952;28;20211;-68
2021/04/28 05:44:15;;;;;;;4.27;3.53;;;7.60;48.90;;;;;;5040827;28;20281;-68
2021/04/28 05:46:41;;;;;;;4.53;4.00;;;7.60;48.20;;;;;;5042368;28;20202;-68
2021/04/28 05:49:07;;;;;;;4.83;4.17;;;7.70;48.20;;;;;;5036286;28;20277;-68
2021/04/28 05:51:32;;;;;;;5.90;4.60;;;7.80;48.30;;;;;;5028876;28;20202;-68
2021/04/28 05:53:59;;;;;;;5.03;3.57;;;7.80;47.70;;;;;;5026693;28;20819;-69
2021/04/28 05:56:24;;;;;;;5.37;4.10;;;8.00;47.60;;;;;;5035195;28;20261;-69
2021/04/28 05:58:50;;;;;;;4.57;3.60;;;8.10;46.90;;;;;;5019441;28;20218;-69
2021/04/28 06:01:15;;;;;;;3.67;3.27;;;8.20;46.70;;;;;;5027097;28;20195;-69
2021/04/28 06:03:41;;;;;;;4.80;3.53;;;8.30;46.40;;;;;;5039037;28;20274;-69
2021/04/28 06:06:08;;;;;;;4.33;3.27;;;8.40;45.40;;;;;;5040772;28;20210;-69
2021/04/28 06:08:34;;;;;;;7.67;3.80;;;8.50;46.00;;;;;;5018937;28;20218;-70
2021/04/28 06:11:00;;;;;;;4.90;3.90;;;8.70;46.10;;;;;;5037813;28;20194;-69
2021/04/28 06:13:26;;;;;;;6.90;3.60;;;8.80;45.50;;;;;;5040978;28;20708;-68
2021/04/28 06:15:51;;;;;;;4.23;3.57;;;8.90;44.70;;;;;;5039645;28;20588;-68
2021/04/28 06:18:17;;;;;;;4.63;3.80;;;8.80;44.70;;;;;;5039047;28;20191;-68
2021/04/28 06:20:43;;;;;;;5.60;4.50;;;9.00;45.30;;;;;;5038151;28;20240;-69
2021/04/28 06:23:08;;;;;;;4.97;4.43;;;9.20;43.90;;;;;;5037461;28;20241;-68
2021/04/28 06:25:34;;;;;;;3.63;3.07;;;9.30;43.50;;;;;;5039595;28;20672;-68
2021/04/28 06:28:00;;;;;;;5.13;3.70;;;9.40;42.50;;;;;;5021142;28;20202;-68
2021/04/28 06:30:25;;;;;;;5.97;3.80;;;9.40;43.90;;;;;;5037330;28;20206;-67
2021/04/28 06:32:51;;;;;;;5.40;3.70;;;9.60;42.60;;;;;;5037648;28;20233;-69
2021/04/28 06:35:17;;;;;;;4.13;3.60;;;9.70;42.50;;;;;;5039601;28;20198;-68
2021/04/28 06:37:43;;;;;;;5.47;3.60;;;9.80;42.50;;;;;;5040436;28;20189;-69
2021/04/28 06:40:10;;;;;;;4.20;3.80;;;9.90;42.20;;;;;;5037798;28;20191;-69
2021/04/28 06:42:36;;;;;;;5.20;3.77;;;9.80;42.60;;;;;;5040402;28;20714;-69
2021/04/28 06:45:03;;;;;;;4.30;3.47;;;10.00;41.30;;;;;;5023810;28;20232;-69
2021/04/28 06:47:29;;;;;;;4.40;3.80;;;10.10;40.50;;;;;;5038969;28;20252;-69
2021/04/28 06:49:55;;;;;;;3.27;2.97;;;10.30;40.80;;;;;;5037968;28;20187;-69
2021/04/28 06:52:21;;;;;;;4.87;3.77;;;10.50;40.50;;;;;;5035641;28;20203;-69
2021/04/28 06:54:47;;;;;;;5.60;4.57;;;10.60;39.60;;;;;;5041449;28;20820;-68
2021/04/28 06:57:12;;;;;;;6.53;3.70;;;10.80;39.70;;;;;;5041450;28;20190;-68
2021/04/28 06:59:38;;;;;;;5.80;3.57;;;10.90;39.50;;;;;;5039210;28;20191;-69
2021/04/28 07:02:03;;;;;;;5.30;3.43;;;10.90;39.60;;;;;;5039446;28;20648;-69
2021/04/28 07:04:29;;;;;;;6.47;4.37;;;11.00;38.10;;;;;;5038521;28;20226;-70
2021/04/28 07:06:55;;;;;;;3.70;3.30;;;11.00;38.80;;;;;;5038660;28;20715;-68
2021/04/28 07:09:20;;;;;;;2.93;2.67;;;11.30;38.50;;;;;;5037506;28;20219;-68
2021/04/28 07:11:46;;;;;;;6.10;3.60;;;11.50;37.90;;;;;;5015849;28;20199;-68
2021/04/28 07:14:12;;;;;;;6.27;3.83;;;11.60;37.20;;;;;;5020240;28;20213;-68
2021/04/28 07:16:38;;;;;;;6.70;3.90;;;11.30;38.10;;;;;;5038673;28;20230;-69
2021/04/28 07:19:04;;;;;;;4.90;3.70;;;13.10;39.60;;;;;;5038306;28;20217;-69
2021/04/28 07:21:30;;;;;;;7.07;4.10;;;11.80;37.50;;;;;;5022623;28;20261;-68
2021/04/28 07:23:56;;;;;;;4.80;3.73;;;12.10;38.00;;;;;;5021263;28;20611;-68
2021/04/28 07:26:21;;;;;;;5.27;4.00;;;12.30;35.90;;;;;;5038962;28;20993;-68
2021/04/28 07:28:50;;;;;;;5.30;4.23;;;12.30;35.00;;;;;;5019567;28;20198;-68
2021/04/28 07:31:19;;;;;;;4.70;3.90;;;12.30;35.60;;;;;;5041036;28;20646;-69
2021/04/28 07:33:45;;;;;;;4.87;3.67;;;12.30;35.10;;;;;;5039228;28;20204;-68
2021/04/28 07:36:12;;;;;;;5.13;3.50;;;12.30;35.70;;;;;;5039184;28;20240;-69
2021/04/28 07:38:37;;;;;;;6.93;4.27;;;12.10;36.00;;;;;;5021689;28;20646;-69
2021/04/28 07:41:03;;;;;;;4.10;3.10;;;12.30;35.90;;;;;;5036293;28;20192;-68
2021/04/28 07:43:29;;;;;;;3.70;3.27;;;12.40;35.50;;;;;;5040513;28;20217;-69
2021/04/28 07:45:54;;;;;;;4.80;3.77;;;12.10;36.40;;;;;;5034541;28;20273;-68
2021/04/28 07:48:21;;;;;;;7.30;4.00;;;12.30;35.90;;;;;;5039252;28;20190;-68
2021/04/28 07:50:47;;;;;;;4.27;3.87;;;12.20;36.40;;;;;;5039094;28;20189;-69
2021/04/28 07:53:13;;;;;;;7.03;3.90;;;12.50;36.10;;;;;;5038357;28;20192;-69
2021/04/28 07:55:39;;;;;;;6.47;4.60;;;12.70;35.50;;;;;;5028469;28;20195;-69
2021/04/28 07:58:05;;;;;;;5.50;4.27;;;12.50;36.40;;;;;;5038179;28;20191;-70
2021/04/28 08:00:31;;;;;;;5.30;4.30;;;12.80;35.80;;;;;;5033126;28;20974;-69
2021/04/28 08:02:57;;;;;;;5.40;3.40;;;13.10;35.50;;;;;;5027683;28;20223;-69
2021/04/28 08:05:23;;;;;;;7.03;4.43;;;13.50;34.60;;;;;;5035460;28;20293;-68
2021/04/28 08:07:49;;;;;;;4.83;4.10;;;13.60;34.80;;;;;;5038254;28;20891;-69
2021/04/28 08:10:16;;;;;;;8.83;5.03;;;13.80;34.30;;;;;;5039848;28;20285;-68
2021/04/28 08:12:41;;;;;;;4.77;3.83;;;14.00;33.60;;;;;;5027789;28;20194;-68
2021/04/28 08:15:08;;;;;;;6.03;4.47;;;14.10;33.20;;;;;;5036955;28;20207;-70
2021/04/28 08:17:34;;;;;;;8.10;4.00;;;14.20;33.30;;;;;;5019009;28;20205;-68
2021/04/28 08:20:00;;;;;;;7.73;3.80;;;14.30;33.00;;;;;;5016445;28;20210;-68
2021/04/28 08:22:27;;;;;;;4.73;3.90;;;14.20;33.80;;;;;;5040193;28;20698;-68
2021/04/28 08:24:53;;;;;;;6.90;4.67;;;14.30;32.90;;;;;;5021323;28;20278;-69
2021/04/28 08:27:20;;;;;;;5.43;4.47;;;14.40;33.30;;;;;;5035636;28;20289;-69
2021/04/28 08:29:46;;;;;;;8.83;4.70;;;14.30;33.60;;;;;;5034165;28;20195;-70
2021/04/28 08:32:11;;;;;;;5.70;4.33;;;14.40;33.30;;;;;;5024488;28;20214;-68
2021/04/28 08:34:37;;;;;;;4.83;4.30;;;14.50;33.80;;;;;;5035242;28;20564;-68
2021/04/28 08:37:03;;;;;;;6.10;4.53;;;14.80;33.50;;;;;;5039449;28;20206;-67
2021/04/28 08:39:29;;;;;;;6.67;4.30;;;15.10;32.70;;;;;;5038517;28;20243;-68
2021/04/28 08:41:54;;;;;;;7.77;4.63;;;15.20;32.80;;;;;;5037903;28;20301;-69
2021/04/28 08:44:20;;;;;;;6.50;4.50;;;15.30;32.40;;;;;;5039051;28;20244;-69
2021/04/28 08:46:47;;;;;;;10.33;4.97;;;15.40;31.90;;;;;;5035449;28;22091;-68
2021/04/28 08:49:13;;;;;;;7.03;4.73;;;15.50;33.00;;;;;;5030228;28;20289;-68
2021/04/28 08:51:39;;;;;;;5.77;4.43;;;15.50;33.00;;;;;;5020313;28;20294;-68
2021/04/28 08:54:05;;;;;;;6.53;5.30;;;15.70;32.50;;;;;;5039287;28;20194;-68
2021/04/28 08:56:31;;;;;;;7.93;3.97;;;15.80;32.50;;;;;;5039026;28;20191;-69
2021/04/28 08:58:58;;;;;;;7.67;4.47;;;15.70;31.30;;;;;;5038599;28;20186;-68
2021/04/28 09:01:32;;;;;;;5.27;4.20;;;15.70;31.60;;;;;;5036322;28;20187;-69
2021/04/28 09:03:59;;;;;;;5.20;4.53;;;15.90;31.50;;;;;;5036602;28;20194;-69
2021/04/28 09:06:36;;;;;;;7.93;5.13;;;16.00;30.20;;;;;;5037067;28;20248;-69
2021/04/28 09:09:14;;;;;;;6.33;4.30;;;15.80;32.20;;;;;;5035440;28;20289;-69
2021/04/28 09:11:48;;;;;;;9.57;5.43;;;15.90;31.80;;;;;;5038765;28;20245;-69
2021/04/28 09:14:24;;;;;;;7.47;4.97;;;16.00;32.30;;;;;;5033529;28;20195;-68
2021/04/28 09:16:55;;;;;;;6.87;4.57;;;16.10;32.20;;;;;;5037745;28;20190;-69
2021/04/28 09:19:23;;;;;;;6.10;5.17;;;16.30;32.40;;;;;;5034209;28;20191;-69
2021/04/28 09:21:52;;;;;;;7.07;5.10;;;16.50;30.80;;;;;;5034090;28;20874;-69
2021/04/28 09:24:27;;;;;;;6.10;4.77;;;16.90;30.30;;;;;;5016554;28;20213;-69
2021/04/28 09:26:54;;;;;;;7.00;5.37;;;17.00;30.40;;;;;;5038064;28;20176;-69
2021/04/28 09:29:23;;;;;;;6.43;5.13;;;17.00;30.00;;;;;;5037039;28;20198;-69
2021/04/28 09:32:08;;;;;;;8.23;4.60;;;16.90;30.30;;;;;;5037045;28;20201;-69
2021/04/28 09:34:42;;;;;;;9.87;4.87;;;16.90;30.40;;;;;;5039342;28;20186;-68
2021/04/28 09:37:09;;;;;;;6.43;4.37;;;16.90;29.90;;;;;;5037432;28;20198;-69
2021/04/28 09:39:41;;;;;;;6.70;4.63;;;16.90;30.30;;;;;;5026429;28;20194;-68
2021/04/28 09:42:07;;;;;;;7.20;5.20;;;17.00;29.90;;;;;;5037779;28;20222;-69
2021/04/28 09:44:34;;;;;;;8.93;5.20;;;17.10;29.90;;;;;;5040694;28;20202;-68
2021/04/28 09:47:08;;;;;;;7.43;4.90;;;16.90;30.20;;;;;;5034115;28;20195;-68
2021/04/28 09:49:52;;;;;;;6.97;4.93;;;16.80;30.20;;;;;;5039764;28;20343;-68
2021/04/28 09:52:37;;;;;;;7.20;4.97;;;16.70;30.00;;;;;;5042612;28;20256;-70
2021/04/28 09:55:04;;;;;;;10.47;5.73;;;16.80;30.30;;;;;;5042571;28;20286;-70
2021/04/28 09:57:47;;;;;;;8.53;5.37;;;16.80;30.70;;;;;;5042944;28;20186;-70
2021/04/28 10:00:28;;;;;;;9.73;5.00;;;17.00;30.00;;;;;;5039696;28;20650;-68
2021/04/28 10:02:54;;;;;;;7.37;5.33;;;17.00;29.80;;;;;;5022120;28;20260;-70
2021/04/28 10:05:26;;;;;;;10.63;5.97;;;17.00;29.90;;;;;;5039938;28;20245;-70
2021/04/28 10:08:23;;;;;;;8.10;5.37;;;17.10;30.30;;;;;;5041761;28;20661;-70
2021/04/28 10:10:52;;;;;;;8.23;4.90;;;17.40;30.00;;;;;;5040522;28;20182;-70
2021/04/28 10:13:18;;;;;;;6.83;4.90;;;17.60;29.80;;;;;;5023014;28;20225;-70
2021/04/28 10:15:44;;;;;;;8.37;5.80;;;17.70;30.00;;;;;;5038807;28;20211;-70
2021/04/28 10:18:15;;;;;;;9.80;5.73;;;17.60;30.20;;;;;;5041341;28;20230;-70
2021/04/28 10:20:43;;;;;;;7.93;4.87;;;17.50;30.10;;;;;;5041898;28;20191;-69
2021/04/28 10:23:10;;;;;;;15.90;6.13;;;17.70;30.70;;;;;;5034394;28;20565;-70
2021/04/28 10:25:37;;;;;;;9.03;5.53;;;17.80;29.40;;;;;;5036688;28;20186;-70
2021/04/28 10:28:09;;;;;;;7.13;5.13;;;17.90;29.40;;;;;;5038010;28;20278;-69
2021/04/28 10:30:42;;;;;;;10.70;6.37;;;18.10;29.40;;;;;;5025095;28;20620;-69
2021/04/28 10:33:15;;;;;;;8.47;5.93;;;17.90;29.20;;;;;;5025878;28;20197;-70
2021/04/28 10:35:41;;;;;;;8.23;5.13;;;18.00;29.60;;;;;;5038939;28;20201;-70
2021/04/28 10:38:07;;;;;;;9.90;5.77;;;18.20;30.00;;;;;;5041556;28;20207;-70
2021/04/28 10:40:36;;;;;;;9.93;6.03;;;18.40;29.20;;;;;;5041421;28;20280;-70
2021/04/28 10:43:09;;;;;;;7.50;5.37;;;18.40;29.10;;;;;;5038666;28;20220;-68
2021/04/28 10:45:39;;;;;;;10.37;5.97;;;18.40;29.40;;;;;;5037779;28;20192;-68
2021/04/28 10:48:12;;;;;;;7.27;5.13;;;18.50;29.80;;;;;;5040339;28;20194;-68
2021/04/28 10:50:45;;;;;;;8.37;5.00;;;18.70;29.40;;;;;;5041866;28;20191;-67
2021/04/28 10:53:19;;;;;;;8.70;5.47;;;18.90;30.50;;;;;;5034630;28;20651;-67
2021/04/28 10:56:08;;;;;;;7.60;5.67;;;19.00;29.00;;;;;;5039290;28;20210;-67
2021/04/28 10:58:39;;;;;;;8.87;5.57;;;19.10;28.90;;;;;;5041259;28;20187;-67
2021/04/28 11:01:05;;;;;;;9.93;5.60;;;19.10;29.20;;;;;;5036763;28;20216;-67
2021/04/28 11:03:41;;;;;;;8.90;6.03;;;19.10;29.20;;;;;;5038790;28;20215;-68
2021/04/28 11:06:22;;;;;;;10.47;5.70;;;19.10;27.90;;;;;;5039177;28;20214;-67
2021/04/28 11:08:54;;;;;;;11.83;6.50;;;19.00;28.80;;;;;;5036803;28;20207;-67
2021/04/28 11:11:32;;;;;;;7.93;5.30;;;19.00;29.10;;;;;;5039374;28;20192;-67
2021/04/28 11:14:10;;;;;;;12.90;6.27;;;19.20;28.90;;;;;;5039985;28;20696;-67
2021/04/28 11:16:47;;;;;;;9.00;6.07;;;19.50;28.50;;;;;;5036949;28;20192;-68
2021/04/28 11:19:27;;;;;;;9.67;5.37;;;19.80;28.10;;;;;;5039369;28;20182;-68
2021/04/28 11:22:15;;;;;;;9.33;5.63;;;19.90;28.10;;;;;;5039253;28;20216;-67
2021/04/28 11:25:02;;;;;;;9.77;6.70;;;20.20;28.40;;;;;;5037678;28;20956;-68
2021/04/28 11:27:43;;;;;;;9.80;5.80;;;20.30;28.00;;;;;;5022860;28;20618;-66
2021/04/28 11:30:17;;;;;;;11.67;6.43;;;20.50;27.70;;;;;;5015395;28;20194;-68
2021/04/28 11:33:07;;;;;;;14.47;5.63;;;20.80;28.70;;;;;;5041105;28;20194;-71
2021/04/28 11:35:35;;;;;;;8.57;6.10;;;21.40;27.70;;;;;;5037449;28;20199;-74
2021/04/28 11:38:09;;;;;;;7.90;6.13;;;21.90;26.80;;;;;;5042202;28;20186;-73
2021/04/28 11:41:04;;;;;;;10.10;6.20;;;23.00;24.80;;;;;;5000206;23;20269;-73
2021/04/28 11:44:01;;;;;;;6.87;5.63;;;24.40;23.30;;;;;;5396488;23;20250;-74
2021/04/28 11:46:29;;;;;;;7.30;5.72;;;24.30;23.20;;;;;;5045493;23;20236;-74
2021/04/28 11:48:57;;;;;;;8.10;5.60;;;25.20;23.20;;;;;;5030886;28;20198;-74
2021/04/28 11:51:27;;;;;;;11.43;6.00;;;27.40;20.30;;;;;;5002418;28;20285;-75
2021/04/28 11:53:59;;;;;;;7.35;5.00;;;27.50;20.80;;;;;;5020133;28;20198;-75
2021/04/28 11:56:36;;;;;;;10.40;5.72;;;27.80;18.40;;;;;;5009173;28;20191;-74
2021/04/28 11:59:02;;;;;;;9.63;6.25;;;25.40;19.50;;;;;;5032111;23;20670;-75
2021/04/28 12:01:31;;;;;;;9.48;6.63;;;25.20;20.40;;;;;;5010043;28;20194;-74
2021/04/28 12:04:14;;;;;;;8.57;6.50;;;25.10;20.40;;;;;;5007719;28;20195;-74
2021/04/28 12:06:45;;;;;;;8.27;5.78;;;25.20;19.90;;;;;;5028238;23;20624;-73
2021/04/28 12:09:17;;;;;;;8.80;6.07;;;25.20;20.10;;;;;;5022891;28;20197;-74
2021/04/28 12:11:47;;;;;;;8.48;5.35;;;25.70;19.30;;;;;;5035727;28;20659;-74
2021/04/28 12:14:24;;;;;;;7.82;6.03;;;25.90;19.00;;;;;;5019436;28;20193;-76
2021/04/28 12:16:57;;;;;;;7.43;5.75;;;26.90;18.30;;;;;;5035173;28;20245;-74
2021/04/28 12:19:24;;;;;;;8.40;5.97;;;27.90;18.60;;;;;;5018968;28;20197;-75
2021/04/28 12:22:10;;;;;;;7.20;6.28;;;28.80;17.50;;;;;;5034969;28;20219;-72
2021/04/28 12:24:45;;;;;;;7.35;5.30;;;29.50;16.50;;;;;;5035742;28;20205;-73
2021/04/28 12:27:23;;;;;;;7.93;5.57;;;30.00;15.70;;;;;;5037849;28;20265;-74
2021/04/28 12:29:52;;;;;;;7.70;6.05;;;30.70;14.10;;;;;;5008187;23;20232;-75
2021/04/28 12:32:19;;;;;;;9.15;6.13;;;30.60;14.70;;;;;;5009898;28;20262;-75
2021/04/28 12:34:46;;;;;;;7.68;5.22;;;30.80;14.30;;;;;;4995232;28;20192;-74
2021/04/28 12:37:20;;;;;;;7.72;5.90;;;31.20;14.10;;;;;;4997318;28;20191;-74
2021/04/28 12:39:52;;;;;;;9.15;5.57;;;31.60;13.50;;;;;;4997705;28;20609;-75
2021/04/28 12:42:31;;;;;;;7.47;5.30;;;29.90;13.70;;;;;;5003677;28;20211;-75
2021/04/28 12:44:59;;;;;;;8.32;6.10;;;28.70;16.00;;;;;;5008232;28;20269;-74
2021/04/28 12:47:27;;;;;;;8.27;5.88;;;29.30;16.30;;;;;;5000301;28;20557;-74
2021/04/28 12:50:00;;;;;;;7.15;5.50;;;30.50;16.60;;;;;;4992070;28;20184;-74
2021/04/28 12:52:32;;;;;;;8.73;5.82;;;31.30;14.40;;;;;;5003197;28;20192;-75
2021/04/28 12:54:57;;;;;;;6.68;4.95;;;32.30;14.40;;;;;;4987205;28;20335;-75
2021/04/28 12:57:25;;;;;;;7.93;5.72;;;32.60;13.80;;;;;;5000087;28;20270;-75
2021/04/28 13:00:11;;;;;;;7.90;6.00;;;33.70;12.90;;;;;;4996203;28;20207;-75